sensor_id;sensor_type;location;lat;lon;timestamp;P1;durP1;ratioP1;P2;durP2;ratioP2
7683;SDS011;3884;48.616;12.872;2023-07-13T00:01:31;11.17;;;9.10;;
7683;SDS011;3884;48.616;12.872;2023-07-13T00:03:58;11.37;;;9.50;;
7683;SDS011;3884;48.616;12.872;2023-07-13T00:06:25;12.20;;;9.10;;
7683;SDS011;3884;48.616;12.872;2023-07-13T00:08:55;11.20;;;8.83;;
7683;SDS011;3884;48.616;12.872;2023-07-13T00:11:22;12.13;;;9.70;;
7683;SDS011;3884;48.616;12.872;2023-07-13T00:13:50;15.83;;;9.03;;
7683;SDS011;3884;48.616;12.872;2023-07-13T00:16:17;10.13;;;8.90;;
7683;SDS011;3884;48.616;12.872;2023-07-13T00:18:44;11.63;;;8.57;;
7683;SDS011;3884;48.616;12.872;2023-07-13T00:21:12;9.87;;;8.87;;
7683;SDS011;3884;48.616;12.872;2023-07-13T00:23:39;9.43;;;8.40;;
7683;SDS011;3884;48.616;12.872;2023-07-13T00:26:08;10.13;;;8.43;;
7683;SDS011;3884;48.616;12.872;2023-07-13T00:28:37;11.37;;;8.37;;
7683;SDS011;3884;48.616;12.872;2023-07-13T00:31:06;10.00;;;9.00;;
7683;SDS011;3884;48.616;12.872;2023-07-13T00:33:33;11.57;;;8.20;;
7683;SDS011;3884;48.616;12.872;2023-07-13T00:36:00;8.90;;;8.00;;
7683;SDS011;3884;48.616;12.872;2023-07-13T00:38:27;10.83;;;8.60;;
7683;SDS011;3884;48.616;12.872;2023-07-13T00:40:54;9.70;;;8.53;;
7683;SDS011;3884;48.616;12.872;2023-07-13T00:43:23;9.83;;;8.80;;
7683;SDS011;3884;48.616;12.872;2023-07-13T00:46:14;9.23;;;8.33;;
7683;SDS011;3884;48.616;12.872;2023-07-13T00:48:44;9.87;;;8.87;;
7683;SDS011;3884;48.616;12.872;2023-07-13T00:51:14;9.93;;;8.53;;
7683;SDS011;3884;48.616;12.872;2023-07-13T00:53:44;8.43;;;7.50;;
7683;SDS011;3884;48.616;12.872;2023-07-13T00:56:10;9.00;;;8.10;;
7683;SDS011;3884;48.616;12.872;2023-07-13T00:58:38;10.73;;;8.10;;
7683;SDS011;3884;48.616;12.872;2023-07-13T01:01:05;11.03;;;8.03;;
7683;SDS011;3884;48.616;12.872;2023-07-13T01:03:33;10.47;;;7.30;;
7683;SDS011;3884;48.616;12.872;2023-07-13T01:06:01;9.30;;;7.47;;
7683;SDS011;3884;48.616;12.872;2023-07-13T01:08:28;7.87;;;6.73;;
7683;SDS011;3884;48.616;12.872;2023-07-13T01:10:55;10.43;;;7.27;;
7683;SDS011;3884;48.616;12.872;2023-07-13T01:13:23;7.23;;;6.50;;
7683;SDS011;3884;48.616;12.872;2023-07-13T01:15:53;8.73;;;7.47;;
7683;SDS011;3884;48.616;12.872;2023-07-13T01:18:23;8.40;;;7.60;;
7683;SDS011;3884;48.616;12.872;2023-07-13T01:20:56;9.27;;;8.17;;
7683;SDS011;3884;48.616;12.872;2023-07-13T01:23:23;14.03;;;9.13;;
7683;SDS011;3884;48.616;12.872;2023-07-13T01:25:51;11.03;;;8.67;;
7683;SDS011;3884;48.616;12.872;2023-07-13T01:28:18;9.70;;;8.27;;
7683;SDS011;3884;48.616;12.872;2023-07-13T01:30:46;12.50;;;9.37;;
7683;SDS011;3884;48.616;12.872;2023-07-13T01:33:13;9.97;;;9.07;;
7683;SDS011;3884;48.616;12.872;2023-07-13T01:35:42;12.63;;;9.13;;
7683;SDS011;3884;48.616;12.872;2023-07-13T01:38:11;15.07;;;8.87;;
7683;SDS011;3884;48.616;12.872;2023-07-13T01:40:40;10.57;;;8.93;;
7683;SDS011;3884;48.616;12.872;2023-07-13T01:43:08;11.20;;;9.07;;
7683;SDS011;3884;48.616;12.872;2023-07-13T01:45:35;9.63;;;8.60;;
7683;SDS011;3884;48.616;12.872;2023-07-13T01:48:02;11.33;;;8.60;;
7683;SDS011;3884;48.616;12.872;2023-07-13T01:50:31;11.03;;;9.23;;
7683;SDS011;3884;48.616;12.872;2023-07-13T01:52:58;10.00;;;8.93;;
7683;SDS011;3884;48.616;12.872;2023-07-13T01:55:27;10.87;;;8.47;;
7683;SDS011;3884;48.616;12.872;2023-07-13T01:57:54;10.97;;;8.37;;
7683;SDS011;3884;48.616;12.872;2023-07-13T02:00:22;11.90;;;8.67;;
7683;SDS011;3884;48.616;12.872;2023-07-13T02:02:49;9.00;;;8.10;;
7683;SDS011;3884;48.616;12.872;2023-07-13T02:05:17;9.10;;;7.87;;
7683;SDS011;3884;48.616;12.872;2023-07-13T02:07:43;9.57;;;7.80;;
7683;SDS011;3884;48.616;12.872;2023-07-13T02:10:10;7.77;;;7.00;;
7683;SDS011;3884;48.616;12.872;2023-07-13T02:12:39;11.37;;;7.80;;
7683;SDS011;3884;48.616;12.872;2023-07-13T02:15:07;10.43;;;7.53;;
7683;SDS011;3884;48.616;12.872;2023-07-13T02:17:35;8.30;;;7.47;;
7683;SDS011;3884;48.616;12.872;2023-07-13T02:20:02;9.47;;;7.40;;
7683;SDS011;3884;48.616;12.872;2023-07-13T02:22:29;8.33;;;7.50;;
7683;SDS011;3884;48.616;12.872;2023-07-13T02:24:56;7.77;;;7.00;;
7683;SDS011;3884;48.616;12.872;2023-07-13T02:27:24;10.20;;;7.70;;
7683;SDS011;3884;48.616;12.872;2023-07-13T02:29:52;7.87;;;7.03;;
7683;SDS011;3884;48.616;12.872;2023-07-13T02:32:20;9.17;;;6.97;;
7683;SDS011;3884;48.616;12.872;2023-07-13T02:34:50;9.03;;;6.97;;
7683;SDS011;3884;48.616;12.872;2023-07-13T02:37:18;8.50;;;7.60;;
7683;SDS011;3884;48.616;12.872;2023-07-13T02:39:45;8.50;;;7.27;;
7683;SDS011;3884;48.616;12.872;2023-07-13T02:42:13;9.20;;;7.50;;
7683;SDS011;3884;48.616;12.872;2023-07-13T02:44:40;8.10;;;7.30;;
7683;SDS011;3884;48.616;12.872;2023-07-13T02:47:08;8.63;;;7.63;;
7683;SDS011;3884;48.616;12.872;2023-07-13T02:49:34;9.20;;;7.30;;
7683;SDS011;3884;48.616;12.872;2023-07-13T02:52:02;8.20;;;7.00;;
7683;SDS011;3884;48.616;12.872;2023-07-13T02:54:30;8.17;;;6.87;;
7683;SDS011;3884;48.616;12.872;2023-07-13T02:56:58;7.93;;;7.00;;
7683;SDS011;3884;48.616;12.872;2023-07-13T02:59:25;9.00;;;6.67;;
7683;SDS011;3884;48.616;12.872;2023-07-13T03:01:52;9.90;;;7.23;;
7683;SDS011;3884;48.616;12.872;2023-07-13T03:04:20;10.07;;;7.53;;
7683;SDS011;3884;48.616;12.872;2023-07-13T03:06:47;9.07;;;6.43;;
7683;SDS011;3884;48.616;12.872;2023-07-13T03:09:14;8.33;;;6.87;;
7683;SDS011;3884;48.616;12.872;2023-07-13T03:11:46;9.40;;;7.00;;
7683;SDS011;3884;48.616;12.872;2023-07-13T03:14:20;10.10;;;6.83;;
7683;SDS011;3884;48.616;12.872;2023-07-13T03:16:47;9.27;;;6.57;;
7683;SDS011;3884;48.616;12.872;2023-07-13T03:19:14;8.43;;;6.30;;
7683;SDS011;3884;48.616;12.872;2023-07-13T03:21:47;10.70;;;6.40;;
7683;SDS011;3884;48.616;12.872;2023-07-13T03:24:14;10.10;;;6.00;;
7683;SDS011;3884;48.616;12.872;2023-07-13T03:26:42;9.03;;;5.77;;
7683;SDS011;3884;48.616;12.872;2023-07-13T03:29:09;8.00;;;6.03;;
7683;SDS011;3884;48.616;12.872;2023-07-13T03:31:36;7.53;;;5.67;;
7683;SDS011;3884;48.616;12.872;2023-07-13T03:34:03;6.87;;;5.53;;
7683;SDS011;3884;48.616;12.872;2023-07-13T03:36:30;9.07;;;6.23;;
7683;SDS011;3884;48.616;12.872;2023-07-13T03:39:03;11.23;;;6.53;;
7683;SDS011;3884;48.616;12.872;2023-07-13T03:41:41;10.00;;;6.50;;
7683;SDS011;3884;48.616;12.872;2023-07-13T03:44:07;9.17;;;6.50;;
7683;SDS011;3884;48.616;12.872;2023-07-13T03:46:35;7.60;;;5.90;;
7683;SDS011;3884;48.616;12.872;2023-07-13T03:49:04;11.30;;;6.53;;
7683;SDS011;3884;48.616;12.872;2023-07-13T03:51:32;9.27;;;5.73;;
7683;SDS011;3884;48.616;12.872;2023-07-13T03:54:00;8.23;;;6.13;;
7683;SDS011;3884;48.616;12.872;2023-07-13T03:56:29;11.23;;;5.77;;
7683;SDS011;3884;48.616;12.872;2023-07-13T03:58:58;9.17;;;6.10;;
7683;SDS011;3884;48.616;12.872;2023-07-13T04:01:26;7.90;;;4.97;;
7683;SDS011;3884;48.616;12.872;2023-07-13T04:03:53;12.53;;;6.03;;
7683;SDS011;3884;48.616;12.872;2023-07-13T04:06:23;12.13;;;5.97;;
7683;SDS011;3884;48.616;12.872;2023-07-13T04:08:53;5.80;;;5.17;;
7683;SDS011;3884;48.616;12.872;2023-07-13T04:11:21;11.83;;;5.70;;
7683;SDS011;3884;48.616;12.872;2023-07-13T04:13:51;10.40;;;5.33;;
7683;SDS011;3884;48.616;12.872;2023-07-13T04:16:18;9.00;;;5.40;;
7683;SDS011;3884;48.616;12.872;2023-07-13T04:18:46;10.40;;;5.40;;
7683;SDS011;3884;48.616;12.872;2023-07-13T04:21:14;6.77;;;5.53;;
7683;SDS011;3884;48.616;12.872;2023-07-13T04:23:41;8.33;;;5.67;;
7683;SDS011;3884;48.616;12.872;2023-07-13T04:26:08;9.03;;;5.30;;
7683;SDS011;3884;48.616;12.872;2023-07-13T04:28:35;9.40;;;6.43;;
7683;SDS011;3884;48.616;12.872;2023-07-13T04:31:03;6.00;;;5.40;;
7683;SDS011;3884;48.616;12.872;2023-07-13T04:33:30;12.20;;;5.97;;
7683;SDS011;3884;48.616;12.872;2023-07-13T04:35:57;7.93;;;5.90;;
7683;SDS011;3884;48.616;12.872;2023-07-13T04:38:25;10.70;;;5.80;;
7683;SDS011;3884;48.616;12.872;2023-07-13T04:40:55;11.97;;;5.70;;
7683;SDS011;3884;48.616;12.872;2023-07-13T04:43:23;11.90;;;5.80;;
7683;SDS011;3884;48.616;12.872;2023-07-13T04:45:50;9.73;;;5.70;;
7683;SDS011;3884;48.616;12.872;2023-07-13T04:48:18;9.23;;;5.53;;
7683;SDS011;3884;48.616;12.872;2023-07-13T04:50:45;8.90;;;5.43;;
7683;SDS011;3884;48.616;12.872;2023-07-13T04:53:13;6.33;;;5.30;;
7683;SDS011;3884;48.616;12.872;2023-07-13T04:55:40;11.27;;;5.63;;
7683;SDS011;3884;48.616;12.872;2023-07-13T04:58:07;9.87;;;5.77;;
7683;SDS011;3884;48.616;12.872;2023-07-13T05:00:33;11.03;;;5.33;;
7683;SDS011;3884;48.616;12.872;2023-07-13T05:03:00;10.73;;;5.70;;
7683;SDS011;3884;48.616;12.872;2023-07-13T05:05:30;11.80;;;5.50;;
7683;SDS011;3884;48.616;12.872;2023-07-13T05:08:00;12.10;;;5.73;;
7683;SDS011;3884;48.616;12.872;2023-07-13T05:10:27;13.27;;;6.80;;
7683;SDS011;3884;48.616;12.872;2023-07-13T05:12:54;10.10;;;5.87;;
7683;SDS011;3884;48.616;12.872;2023-07-13T05:15:21;9.90;;;6.23;;
7683;SDS011;3884;48.616;12.872;2023-07-13T05:17:49;8.47;;;5.63;;
7683;SDS011;3884;48.616;12.872;2023-07-13T05:20:16;14.30;;;6.17;;
7683;SDS011;3884;48.616;12.872;2023-07-13T05:22:45;9.23;;;5.50;;
7683;SDS011;3884;48.616;12.872;2023-07-13T05:25:13;9.60;;;6.00;;
7683;SDS011;3884;48.616;12.872;2023-07-13T05:27:40;9.37;;;5.73;;
7683;SDS011;3884;48.616;12.872;2023-07-13T05:30:07;9.53;;;6.30;;
7683;SDS011;3884;48.616;12.872;2023-07-13T05:32:37;8.30;;;5.87;;
7683;SDS011;3884;48.616;12.872;2023-07-13T05:35:04;9.20;;;6.10;;
7683;SDS011;3884;48.616;12.872;2023-07-13T05:37:31;7.77;;;5.97;;
7683;SDS011;3884;48.616;12.872;2023-07-13T05:39:59;9.80;;;6.10;;
7683;SDS011;3884;48.616;12.872;2023-07-13T05:42:26;7.57;;;5.90;;
7683;SDS011;3884;48.616;12.872;2023-07-13T05:44:53;7.13;;;5.80;;
7683;SDS011;3884;48.616;12.872;2023-07-13T05:47:20;9.77;;;5.60;;
7683;SDS011;3884;48.616;12.872;2023-07-13T05:49:47;10.17;;;6.10;;
7683;SDS011;3884;48.616;12.872;2023-07-13T05:52:14;9.47;;;6.33;;
7683;SDS011;3884;48.616;12.872;2023-07-13T05:54:41;10.50;;;6.20;;
7683;SDS011;3884;48.616;12.872;2023-07-13T05:57:09;9.80;;;5.73;;
7683;SDS011;3884;48.616;12.872;2023-07-13T05:59:35;9.23;;;5.63;;
7683;SDS011;3884;48.616;12.872;2023-07-13T06:02:03;9.43;;;5.70;;
7683;SDS011;3884;48.616;12.872;2023-07-13T06:04:30;11.00;;;5.40;;
7683;SDS011;3884;48.616;12.872;2023-07-13T06:06:57;7.50;;;5.23;;
7683;SDS011;3884;48.616;12.872;2023-07-13T06:09:23;8.17;;;5.47;;
7683;SDS011;3884;48.616;12.872;2023-07-13T06:11:50;9.33;;;5.70;;
7683;SDS011;3884;48.616;12.872;2023-07-13T06:14:18;7.30;;;5.40;;
7683;SDS011;3884;48.616;12.872;2023-07-13T06:16:45;10.63;;;5.83;;
7683;SDS011;3884;48.616;12.872;2023-07-13T06:19:12;7.90;;;5.80;;
7683;SDS011;3884;48.616;12.872;2023-07-13T06:21:40;6.83;;;5.27;;
7683;SDS011;3884;48.616;12.872;2023-07-13T06:24:07;7.00;;;5.30;;
7683;SDS011;3884;48.616;12.872;2023-07-13T06:26:33;6.57;;;5.33;;
7683;SDS011;3884;48.616;12.872;2023-07-13T06:29:00;6.17;;;4.80;;
7683;SDS011;3884;48.616;12.872;2023-07-13T06:31:28;7.43;;;5.13;;
7683;SDS011;3884;48.616;12.872;2023-07-13T06:33:55;8.90;;;5.40;;
7683;SDS011;3884;48.616;12.872;2023-07-13T06:36:22;6.13;;;5.00;;
7683;SDS011;3884;48.616;12.872;2023-07-13T06:38:49;10.40;;;5.07;;
7683;SDS011;3884;48.616;12.872;2023-07-13T06:41:16;7.60;;;4.93;;
7683;SDS011;3884;48.616;12.872;2023-07-13T06:43:43;7.67;;;5.00;;
7683;SDS011;3884;48.616;12.872;2023-07-13T06:46:10;5.70;;;5.13;;
7683;SDS011;3884;48.616;12.872;2023-07-13T06:48:38;6.03;;;5.30;;
7683;SDS011;3884;48.616;12.872;2023-07-13T06:51:04;6.13;;;5.07;;
7683;SDS011;3884;48.616;12.872;2023-07-13T06:53:34;10.83;;;4.60;;
7683;SDS011;3884;48.616;12.872;2023-07-13T06:56:01;6.77;;;5.50;;
7683;SDS011;3884;48.616;12.872;2023-07-13T06:58:28;8.83;;;5.17;;
7683;SDS011;3884;48.616;12.872;2023-07-13T07:00:55;9.37;;;5.80;;
7683;SDS011;3884;48.616;12.872;2023-07-13T07:03:22;8.27;;;5.17;;
7683;SDS011;3884;48.616;12.872;2023-07-13T07:05:50;5.60;;;4.70;;
7683;SDS011;3884;48.616;12.872;2023-07-13T07:08:17;7.40;;;4.53;;
7683;SDS011;3884;48.616;12.872;2023-07-13T07:10:44;6.67;;;4.93;;
7683;SDS011;3884;48.616;12.872;2023-07-13T07:13:11;6.63;;;4.90;;
7683;SDS011;3884;48.616;12.872;2023-07-13T07:15:38;8.30;;;4.73;;
7683;SDS011;3884;48.616;12.872;2023-07-13T07:18:05;9.93;;;5.13;;
7683;SDS011;3884;48.616;12.872;2023-07-13T07:20:32;9.47;;;4.77;;
7683;SDS011;3884;48.616;12.872;2023-07-13T07:23:00;7.37;;;4.80;;
7683;SDS011;3884;48.616;12.872;2023-07-13T07:25:27;8.90;;;4.53;;
7683;SDS011;3884;48.616;12.872;2023-07-13T07:27:57;9.17;;;4.43;;
7683;SDS011;3884;48.616;12.872;2023-07-13T07:30:24;8.77;;;4.57;;
7683;SDS011;3884;48.616;12.872;2023-07-13T07:32:50;5.90;;;4.40;;
7683;SDS011;3884;48.616;12.872;2023-07-13T07:35:17;6.80;;;4.80;;
7683;SDS011;3884;48.616;12.872;2023-07-13T07:37:44;10.90;;;4.77;;
7683;SDS011;3884;48.616;12.872;2023-07-13T07:40:13;7.13;;;4.20;;
7683;SDS011;3884;48.616;12.872;2023-07-13T07:42:40;5.67;;;4.10;;
7683;SDS011;3884;48.616;12.872;2023-07-13T07:45:07;6.10;;;4.40;;
7683;SDS011;3884;48.616;12.872;2023-07-13T07:47:36;6.63;;;4.40;;
7683;SDS011;3884;48.616;12.872;2023-07-13T07:50:03;8.03;;;4.13;;
7683;SDS011;3884;48.616;12.872;2023-07-13T07:52:30;6.13;;;4.10;;
7683;SDS011;3884;48.616;12.872;2023-07-13T07:54:57;6.73;;;4.00;;
7683;SDS011;3884;48.616;12.872;2023-07-13T07:57:25;6.37;;;3.90;;
7683;SDS011;3884;48.616;12.872;2023-07-13T07:59:52;6.93;;;4.00;;
7683;SDS011;3884;48.616;12.872;2023-07-13T08:02:19;6.40;;;3.83;;
7683;SDS011;3884;48.616;12.872;2023-07-13T08:04:45;7.63;;;4.27;;
7683;SDS011;3884;48.616;12.872;2023-07-13T08:07:12;6.70;;;3.60;;
7683;SDS011;3884;48.616;12.872;2023-07-13T08:09:39;6.57;;;3.97;;
7683;SDS011;3884;48.616;12.872;2023-07-13T08:12:06;6.97;;;3.57;;
7683;SDS011;3884;48.616;12.872;2023-07-13T08:14:35;6.87;;;3.57;;
7683;SDS011;3884;48.616;12.872;2023-07-13T08:17:03;5.70;;;3.20;;
7683;SDS011;3884;48.616;12.872;2023-07-13T08:19:30;4.00;;;3.60;;
7683;SDS011;3884;48.616;12.872;2023-07-13T08:21:57;6.70;;;3.77;;
7683;SDS011;3884;48.616;12.872;2023-07-13T08:24:24;7.37;;;3.53;;
7683;SDS011;3884;48.616;12.872;2023-07-13T08:26:51;6.97;;;3.93;;
7683;SDS011;3884;48.616;12.872;2023-07-13T08:29:18;8.33;;;3.80;;
7683;SDS011;3884;48.616;12.872;2023-07-13T08:31:46;6.07;;;3.93;;
7683;SDS011;3884;48.616;12.872;2023-07-13T08:34:13;7.00;;;3.30;;
7683;SDS011;3884;48.616;12.872;2023-07-13T08:36:40;6.10;;;2.93;;
7683;SDS011;3884;48.616;12.872;2023-07-13T08:39:07;7.07;;;3.20;;
7683;SDS011;3884;48.616;12.872;2023-07-13T08:41:34;7.83;;;3.40;;
7683;SDS011;3884;48.616;12.872;2023-07-13T08:44:02;5.70;;;3.40;;
7683;SDS011;3884;48.616;12.872;2023-07-13T08:46:33;5.27;;;2.90;;
7683;SDS011;3884;48.616;12.872;2023-07-13T08:49:05;5.67;;;3.00;;
7683;SDS011;3884;48.616;12.872;2023-07-13T08:51:38;3.17;;;2.83;;
7683;SDS011;3884;48.616;12.872;2023-07-13T08:54:11;6.20;;;3.27;;
7683;SDS011;3884;48.616;12.872;2023-07-13T08:56:45;7.33;;;3.07;;
7683;SDS011;3884;48.616;12.872;2023-07-13T08:59:14;4.40;;;3.00;;
7683;SDS011;3884;48.616;12.872;2023-07-13T09:01:47;7.40;;;2.93;;
7683;SDS011;3884;48.616;12.872;2023-07-13T09:04:29;3.50;;;2.30;;
7683;SDS011;3884;48.616;12.872;2023-07-13T09:09:51;3.40;;;2.33;;
7683;SDS011;3884;48.616;12.872;2023-07-13T09:12:31;3.70;;;1.87;;
7683;SDS011;3884;48.616;12.872;2023-07-13T09:15:14;3.93;;;2.10;;
7683;SDS011;3884;48.616;12.872;2023-07-13T09:17:49;2.90;;;2.10;;
7683;SDS011;3884;48.616;12.872;2023-07-13T09:20:19;3.37;;;1.87;;
7683;SDS011;3884;48.616;12.872;2023-07-13T09:22:49;2.97;;;2.00;;
7683;SDS011;3884;48.616;12.872;2023-07-13T09:25:21;4.67;;;1.93;;
7683;SDS011;3884;48.616;12.872;2023-07-13T09:27:53;3.83;;;2.07;;
7683;SDS011;3884;48.616;12.872;2023-07-13T09:30:38;4.73;;;1.67;;
7683;SDS011;3884;48.616;12.872;2023-07-13T09:33:10;3.53;;;2.17;;
7683;SDS011;3884;48.616;12.872;2023-07-13T09:35:39;3.07;;;2.23;;
7683;SDS011;3884;48.616;12.872;2023-07-13T09:38:10;3.33;;;1.90;;
7683;SDS011;3884;48.616;12.872;2023-07-13T09:40:40;2.23;;;1.53;;
7683;SDS011;3884;48.616;12.872;2023-07-13T09:43:15;2.00;;;1.50;;
7683;SDS011;3884;48.616;12.872;2023-07-13T09:45:45;3.23;;;1.80;;
7683;SDS011;3884;48.616;12.872;2023-07-13T09:48:13;2.50;;;1.70;;
7683;SDS011;3884;48.616;12.872;2023-07-13T09:50:43;5.73;;;1.83;;
7683;SDS011;3884;48.616;12.872;2023-07-13T09:53:11;5.43;;;2.10;;
7683;SDS011;3884;48.616;12.872;2023-07-13T09:55:39;3.93;;;2.10;;
7683;SDS011;3884;48.616;12.872;2023-07-13T09:58:09;8.37;;;1.97;;
7683;SDS011;3884;48.616;12.872;2023-07-13T10:00:38;3.53;;;2.10;;
7683;SDS011;3884;48.616;12.872;2023-07-13T10:03:15;3.60;;;2.30;;
7683;SDS011;3884;48.616;12.872;2023-07-13T10:05:45;3.53;;;2.07;;
7683;SDS011;3884;48.616;12.872;2023-07-13T10:08:17;2.93;;;2.00;;
7683;SDS011;3884;48.616;12.872;2023-07-13T10:10:45;2.33;;;1.87;;
7683;SDS011;3884;48.616;12.872;2023-07-13T10:13:25;5.60;;;2.20;;
7683;SDS011;3884;48.616;12.872;2023-07-13T10:15:54;2.07;;;1.83;;
7683;SDS011;3884;48.616;12.872;2023-07-13T10:18:22;9.50;;;2.90;;
7683;SDS011;3884;48.616;12.872;2023-07-13T10:20:52;3.93;;;2.63;;
7683;SDS011;3884;48.616;12.872;2023-07-13T10:23:25;3.87;;;2.07;;
7683;SDS011;3884;48.616;12.872;2023-07-13T10:25:57;6.10;;;2.03;;
7683;SDS011;3884;48.616;12.872;2023-07-13T10:28:28;6.57;;;2.23;;
7683;SDS011;3884;48.616;12.872;2023-07-13T10:30:59;2.93;;;2.00;;
7683;SDS011;3884;48.616;12.872;2023-07-13T10:33:29;4.20;;;1.93;;
7683;SDS011;3884;48.616;12.872;2023-07-13T10:35:59;9.37;;;2.23;;
7683;SDS011;3884;48.616;12.872;2023-07-13T10:38:34;4.07;;;2.23;;
7683;SDS011;3884;48.616;12.872;2023-07-13T10:41:01;5.33;;;2.30;;
7683;SDS011;3884;48.616;12.872;2023-07-13T10:43:31;4.57;;;2.27;;
7683;SDS011;3884;48.616;12.872;2023-07-13T10:46:02;3.67;;;2.60;;
7683;SDS011;3884;48.616;12.872;2023-07-13T10:48:31;3.97;;;2.40;;
7683;SDS011;3884;48.616;12.872;2023-07-13T10:51:00;5.80;;;2.40;;
7683;SDS011;3884;48.616;12.872;2023-07-13T10:53:31;5.73;;;2.30;;
7683;SDS011;3884;48.616;12.872;2023-07-13T10:56:00;3.00;;;2.10;;
7683;SDS011;3884;48.616;12.872;2023-07-13T10:58:34;3.63;;;2.17;;
7683;SDS011;3884;48.616;12.872;2023-07-13T11:01:04;3.27;;;2.20;;
7683;SDS011;3884;48.616;12.872;2023-07-13T11:03:35;3.10;;;2.40;;
7683;SDS011;3884;48.616;12.872;2023-07-13T11:06:07;3.10;;;2.00;;
7683;SDS011;3884;48.616;12.872;2023-07-13T11:08:38;4.97;;;1.97;;
7683;SDS011;3884;48.616;12.872;2023-07-13T11:11:32;2.60;;;1.80;;
7683;SDS011;3884;48.616;12.872;2023-07-13T11:14:01;3.77;;;2.00;;
7683;SDS011;3884;48.616;12.872;2023-07-13T11:16:37;3.93;;;2.30;;
7683;SDS011;3884;48.616;12.872;2023-07-13T11:19:27;5.33;;;2.47;;
7683;SDS011;3884;48.616;12.872;2023-07-13T11:22:13;4.50;;;2.30;;
7683;SDS011;3884;48.616;12.872;2023-07-13T11:24:49;4.10;;;1.97;;
7683;SDS011;3884;48.616;12.872;2023-07-13T11:27:37;3.77;;;2.00;;
7683;SDS011;3884;48.616;12.872;2023-07-13T11:30:08;4.17;;;1.80;;
7683;SDS011;3884;48.616;12.872;2023-07-13T11:32:51;2.77;;;2.00;;
7683;SDS011;3884;48.616;12.872;2023-07-13T11:35:31;4.03;;;2.00;;
7683;SDS011;3884;48.616;12.872;2023-07-13T11:38:01;2.60;;;2.00;;
7683;SDS011;3884;48.616;12.872;2023-07-13T11:40:28;3.80;;;2.27;;
7683;SDS011;3884;48.616;12.872;2023-07-13T11:42:59;5.20;;;2.00;;
7683;SDS011;3884;48.616;12.872;2023-07-13T11:45:27;4.83;;;2.07;;
7683;SDS011;3884;48.616;12.872;2023-07-13T11:47:54;3.80;;;2.13;;
7683;SDS011;3884;48.616;12.872;2023-07-13T11:50:25;4.37;;;2.10;;
7683;SDS011;3884;48.616;12.872;2023-07-13T11:52:52;3.17;;;2.13;;
7683;SDS011;3884;48.616;12.872;2023-07-13T11:55:22;3.13;;;2.00;;
7683;SDS011;3884;48.616;12.872;2023-07-13T11:57:50;4.67;;;2.07;;
7683;SDS011;3884;48.616;12.872;2023-07-13T12:00:23;3.83;;;2.60;;
7683;SDS011;3884;48.616;12.872;2023-07-13T12:02:55;3.77;;;2.50;;
7683;SDS011;3884;48.616;12.872;2023-07-13T12:05:24;2.90;;;2.23;;
7683;SDS011;3884;48.616;12.872;2023-07-13T12:07:52;4.53;;;2.20;;
7683;SDS011;3884;48.616;12.872;2023-07-13T12:10:22;2.97;;;2.30;;
7683;SDS011;3884;48.616;12.872;2023-07-13T12:12:52;2.97;;;2.37;;
7683;SDS011;3884;48.616;12.872;2023-07-13T12:15:20;3.40;;;2.43;;
7683;SDS011;3884;48.616;12.872;2023-07-13T12:17:48;3.20;;;2.30;;
7683;SDS011;3884;48.616;12.872;2023-07-13T12:20:17;3.93;;;2.20;;
7683;SDS011;3884;48.616;12.872;2023-07-13T12:22:50;3.27;;;2.30;;
7683;SDS011;3884;48.616;12.872;2023-07-13T12:25:18;3.80;;;2.17;;
7683;SDS011;3884;48.616;12.872;2023-07-13T12:27:48;6.07;;;2.23;;
7683;SDS011;3884;48.616;12.872;2023-07-13T12:30:26;3.00;;;2.37;;
7683;SDS011;3884;48.616;12.872;2023-07-13T12:32:56;3.53;;;2.10;;
7683;SDS011;3884;48.616;12.872;2023-07-13T12:35:26;4.83;;;2.40;;
7683;SDS011;3884;48.616;12.872;2023-07-13T12:37:56;4.07;;;2.60;;
7683;SDS011;3884;48.616;12.872;2023-07-13T12:40:26;3.60;;;2.40;;
7683;SDS011;3884;48.616;12.872;2023-07-13T12:42:59;4.20;;;2.40;;
7683;SDS011;3884;48.616;12.872;2023-07-13T12:45:29;2.30;;;2.10;;
7683;SDS011;3884;48.616;12.872;2023-07-13T12:47:57;4.90;;;2.53;;
7683;SDS011;3884;48.616;12.872;2023-07-13T12:50:36;3.37;;;2.17;;
7683;SDS011;3884;48.616;12.872;2023-07-13T12:53:06;3.87;;;2.53;;
7683;SDS011;3884;48.616;12.872;2023-07-13T12:55:47;3.23;;;2.43;;
7683;SDS011;3884;48.616;12.872;2023-07-13T12:58:20;6.90;;;2.50;;
7683;SDS011;3884;48.616;12.872;2023-07-13T13:00:51;3.50;;;2.30;;
7683;SDS011;3884;48.616;12.872;2023-07-13T13:03:22;3.77;;;2.50;;
7683;SDS011;3884;48.616;12.872;2023-07-13T13:05:59;6.90;;;2.77;;
7683;SDS011;3884;48.616;12.872;2023-07-13T13:08:28;3.23;;;2.50;;
7683;SDS011;3884;48.616;12.872;2023-07-13T13:10:55;5.33;;;2.77;;
7683;SDS011;3884;48.616;12.872;2023-07-13T13:13:23;4.27;;;2.20;;
7683;SDS011;3884;48.616;12.872;2023-07-13T13:15:50;3.57;;;2.40;;
7683;SDS011;3884;48.616;12.872;2023-07-13T13:18:19;2.53;;;2.33;;
7683;SDS011;3884;48.616;12.872;2023-07-13T13:20:47;3.83;;;2.50;;
7683;SDS011;3884;48.616;12.872;2023-07-13T13:23:17;4.17;;;2.30;;
7683;SDS011;3884;48.616;12.872;2023-07-13T13:25:45;3.77;;;2.50;;
7683;SDS011;3884;48.616;12.872;2023-07-13T13:28:14;6.13;;;2.37;;
7683;SDS011;3884;48.616;12.872;2023-07-13T13:30:44;4.67;;;2.20;;
7683;SDS011;3884;48.616;12.872;2023-07-13T13:33:13;2.70;;;2.10;;
7683;SDS011;3884;48.616;12.872;2023-07-13T13:35:42;5.43;;;2.53;;
7683;SDS011;3884;48.616;12.872;2023-07-13T13:38:10;4.03;;;2.00;;
7683;SDS011;3884;48.616;12.872;2023-07-13T13:40:39;4.03;;;2.00;;
7683;SDS011;3884;48.616;12.872;2023-07-13T13:43:13;2.67;;;1.90;;
7683;SDS011;3884;48.616;12.872;2023-07-13T13:45:42;2.27;;;2.03;;
7683;SDS011;3884;48.616;12.872;2023-07-13T13:48:14;3.37;;;1.77;;
7683;SDS011;3884;48.616;12.872;2023-07-13T13:50:43;2.40;;;1.90;;
7683;SDS011;3884;48.616;12.872;2023-07-13T13:53:10;3.60;;;2.00;;
7683;SDS011;3884;48.616;12.872;2023-07-13T13:55:38;3.50;;;1.90;;
7683;SDS011;3884;48.616;12.872;2023-07-13T13:58:07;2.57;;;1.97;;
7683;SDS011;3884;48.616;12.872;2023-07-13T14:00:35;2.83;;;2.13;;
7683;SDS011;3884;48.616;12.872;2023-07-13T14:03:03;2.83;;;1.80;;
7683;SDS011;3884;48.616;12.872;2023-07-13T14:05:33;6.33;;;2.20;;
7683;SDS011;3884;48.616;12.872;2023-07-13T14:08:00;5.83;;;2.10;;
7683;SDS011;3884;48.616;12.872;2023-07-13T14:10:27;4.23;;;1.77;;
7683;SDS011;3884;48.616;12.872;2023-07-13T14:12:54;4.17;;;1.90;;
7683;SDS011;3884;48.616;12.872;2023-07-13T14:15:23;4.03;;;2.00;;
7683;SDS011;3884;48.616;12.872;2023-07-13T14:17:52;3.33;;;1.80;;
7683;SDS011;3884;48.616;12.872;2023-07-13T14:20:20;4.30;;;1.87;;
7683;SDS011;3884;48.616;12.872;2023-07-13T14:22:50;2.73;;;1.90;;
7683;SDS011;3884;48.616;12.872;2023-07-13T14:25:18;3.63;;;2.03;;
7683;SDS011;3884;48.616;12.872;2023-07-13T14:27:47;3.00;;;2.07;;
7683;SDS011;3884;48.616;12.872;2023-07-13T14:30:16;3.57;;;1.90;;
7683;SDS011;3884;48.616;12.872;2023-07-13T14:32:45;5.40;;;2.00;;
7683;SDS011;3884;48.616;12.872;2023-07-13T14:35:14;3.70;;;2.10;;
7683;SDS011;3884;48.616;12.872;2023-07-13T14:37:42;3.67;;;2.00;;
7683;SDS011;3884;48.616;12.872;2023-07-13T14:40:14;3.10;;;1.90;;
7683;SDS011;3884;48.616;12.872;2023-07-13T14:42:42;2.70;;;2.07;;
7683;SDS011;3884;48.616;12.872;2023-07-13T14:45:13;2.37;;;2.10;;
7683;SDS011;3884;48.616;12.872;2023-07-13T14:47:41;4.73;;;2.10;;
7683;SDS011;3884;48.616;12.872;2023-07-13T14:50:13;5.13;;;1.90;;
7683;SDS011;3884;48.616;12.872;2023-07-13T14:52:42;3.37;;;2.00;;
7683;SDS011;3884;48.616;12.872;2023-07-13T14:55:10;2.77;;;1.93;;
7683;SDS011;3884;48.616;12.872;2023-07-13T14:57:38;3.17;;;1.90;;
7683;SDS011;3884;48.616;12.872;2023-07-13T15:00:09;2.90;;;1.73;;
7683;SDS011;3884;48.616;12.872;2023-07-13T15:02:40;2.57;;;1.90;;
7683;SDS011;3884;48.616;12.872;2023-07-13T15:05:12;5.30;;;1.80;;
7683;SDS011;3884;48.616;12.872;2023-07-13T15:07:41;3.27;;;1.97;;
7683;SDS011;3884;48.616;12.872;2023-07-13T15:10:15;4.23;;;2.00;;
7683;SDS011;3884;48.616;12.872;2023-07-13T15:12:45;5.03;;;1.80;;